Flight Briefing for CPX243

Departure Arrival
Chicago/Rockford International Airport (KRFD)
Click to view FAA NOTAMS
Huntsville International Airport (KHSV)
Click to view FAA NOTAMS
Departure Time Arrival Time
N/A N/A
Aircraft Distance
B767-300BDSF 466nm
Departure METAR Arrival METAR
KRFD 181534Z 30004KT 10SM BKN013 02/M02 A3040 RMK AO2 T00221022 KHSV 181453Z 02013G19KT 10SM CLR 09/M03 A3038 RMK AO2 SLP287 T00941033 53025
Suggested Route
JOT EMBRR BNA RQZ


View recent IFR Routes data
Notes



Charts and Procedures

Charts for KRFD
No chart available
Charts for KHSV
No chart available

Windy.com Weather Map